sensor_id;sensor_type;location;lat;lon;timestamp;P1;durP1;ratioP1;P2;durP2;ratioP2
19089;SDS011;9677;50.656;13.064;2023-05-10T00:00:52;10.07;;;9.17;;
19089;SDS011;9677;50.656;13.064;2023-05-10T00:03:20;10.50;;;9.50;;
19089;SDS011;9677;50.656;13.064;2023-05-10T00:05:48;10.13;;;9.13;;
19089;SDS011;9677;50.656;13.064;2023-05-10T00:08:16;10.30;;;9.33;;
19089;SDS011;9677;50.656;13.064;2023-05-10T00:10:45;9.90;;;9.00;;
19089;SDS011;9677;50.656;13.064;2023-05-10T00:13:13;10.30;;;9.40;;
19089;SDS011;9677;50.656;13.064;2023-05-10T00:15:41;10.50;;;9.50;;
19089;SDS011;9677;50.656;13.064;2023-05-10T00:18:09;10.00;;;9.10;;
19089;SDS011;9677;50.656;13.064;2023-05-10T00:20:37;10.60;;;9.60;;
19089;SDS011;9677;50.656;13.064;2023-05-10T00:23:05;9.93;;;9.03;;
19089;SDS011;9677;50.656;13.064;2023-05-10T00:25:34;10.40;;;9.47;;
19089;SDS011;9677;50.656;13.064;2023-05-10T00:28:03;10.27;;;9.37;;
19089;SDS011;9677;50.656;13.064;2023-05-10T00:30:31;10.00;;;9.10;;
19089;SDS011;9677;50.656;13.064;2023-05-10T00:33:00;10.10;;;9.20;;
19089;SDS011;9677;50.656;13.064;2023-05-10T00:35:29;9.80;;;8.90;;
19089;SDS011;9677;50.656;13.064;2023-05-10T00:37:57;9.90;;;9.00;;
19089;SDS011;9677;50.656;13.064;2023-05-10T00:40:25;10.47;;;9.50;;
19089;SDS011;9677;50.656;13.064;2023-05-10T00:42:57;10.27;;;9.27;;
19089;SDS011;9677;50.656;13.064;2023-05-10T00:45:28;10.20;;;9.20;;
19089;SDS011;9677;50.656;13.064;2023-05-10T00:47:56;9.83;;;8.97;;
19089;SDS011;9677;50.656;13.064;2023-05-10T00:50:26;10.07;;;9.17;;
19089;SDS011;9677;50.656;13.064;2023-05-10T00:52:54;10.30;;;9.40;;
19089;SDS011;9677;50.656;13.064;2023-05-10T00:55:22;10.07;;;9.17;;
19089;SDS011;9677;50.656;13.064;2023-05-10T00:57:51;10.30;;;9.40;;
19089;SDS011;9677;50.656;13.064;2023-05-10T01:00:20;10.33;;;9.33;;
19089;SDS011;9677;50.656;13.064;2023-05-10T01:02:50;10.13;;;9.13;;
19089;SDS011;9677;50.656;13.064;2023-05-10T01:05:18;10.53;;;9.53;;
19089;SDS011;9677;50.656;13.064;2023-05-10T01:07:46;10.13;;;9.20;;
19089;SDS011;9677;50.656;13.064;2023-05-10T01:10:14;10.20;;;9.30;;
19089;SDS011;9677;50.656;13.064;2023-05-10T01:12:43;10.10;;;9.20;;
19089;SDS011;9677;50.656;13.064;2023-05-10T01:15:14;10.20;;;9.30;;
19089;SDS011;9677;50.656;13.064;2023-05-10T01:17:44;10.70;;;9.70;;
19089;SDS011;9677;50.656;13.064;2023-05-10T01:20:15;10.00;;;9.10;;
19089;SDS011;9677;50.656;13.064;2023-05-10T01:22:55;10.40;;;9.40;;
19089;SDS011;9677;50.656;13.064;2023-05-10T01:28:53;10.10;;;9.20;;
19089;SDS011;9677;50.656;13.064;2023-05-10T01:31:50;10.00;;;9.10;;
19089;SDS011;9677;50.656;13.064;2023-05-10T01:34:42;10.37;;;9.47;;
19089;SDS011;9677;50.656;13.064;2023-05-10T01:37:23;10.40;;;9.40;;
19089;SDS011;9677;50.656;13.064;2023-05-10T01:40:00;11.53;;;9.67;;
19089;SDS011;9677;50.656;13.064;2023-05-10T01:42:36;10.27;;;9.37;;
19089;SDS011;9677;50.656;13.064;2023-05-10T01:45:13;10.37;;;9.40;;
19089;SDS011;9677;50.656;13.064;2023-05-10T01:47:50;10.10;;;9.20;;
19089;SDS011;9677;50.656;13.064;2023-05-10T01:50:32;10.70;;;9.63;;
19089;SDS011;9677;50.656;13.064;2023-05-10T01:53:02;10.20;;;9.30;;
19089;SDS011;9677;50.656;13.064;2023-05-10T01:55:35;10.40;;;9.50;;
19089;SDS011;9677;50.656;13.064;2023-05-10T01:58:11;10.40;;;9.50;;
19089;SDS011;9677;50.656;13.064;2023-05-10T02:00:43;10.30;;;9.30;;
19089;SDS011;9677;50.656;13.064;2023-05-10T02:03:15;10.23;;;9.30;;
19089;SDS011;9677;50.656;13.064;2023-05-10T02:05:45;11.23;;;9.60;;
19089;SDS011;9677;50.656;13.064;2023-05-10T02:08:16;10.60;;;9.60;;
19089;SDS011;9677;50.656;13.064;2023-05-10T02:10:46;10.57;;;9.63;;
19089;SDS011;9677;50.656;13.064;2023-05-10T02:13:16;10.50;;;9.60;;
19089;SDS011;9677;50.656;13.064;2023-05-10T02:15:46;13.00;;;9.70;;
19089;SDS011;9677;50.656;13.064;2023-05-10T02:18:17;10.40;;;9.40;;
19089;SDS011;9677;50.656;13.064;2023-05-10T02:20:46;10.13;;;9.23;;
19089;SDS011;9677;50.656;13.064;2023-05-10T02:23:14;10.40;;;9.50;;
19089;SDS011;9677;50.656;13.064;2023-05-10T02:25:45;10.60;;;9.60;;
19089;SDS011;9677;50.656;13.064;2023-05-10T02:28:15;10.70;;;9.70;;
19089;SDS011;9677;50.656;13.064;2023-05-10T02:30:45;10.83;;;9.83;;
19089;SDS011;9677;50.656;13.064;2023-05-10T02:33:15;10.50;;;9.50;;
19089;SDS011;9677;50.656;13.064;2023-05-10T02:35:45;10.40;;;9.40;;
19089;SDS011;9677;50.656;13.064;2023-05-10T02:38:14;11.67;;;10.13;;
19089;SDS011;9677;50.656;13.064;2023-05-10T02:40:43;10.30;;;9.30;;
19089;SDS011;9677;50.656;13.064;2023-05-10T02:43:14;10.47;;;9.47;;
19089;SDS011;9677;50.656;13.064;2023-05-10T02:45:44;10.63;;;9.53;;
19089;SDS011;9677;50.656;13.064;2023-05-10T02:48:15;10.60;;;9.60;;
19089;SDS011;9677;50.656;13.064;2023-05-10T02:50:45;9.87;;;9.00;;
19089;SDS011;9677;50.656;13.064;2023-05-10T02:53:18;10.47;;;9.50;;
19089;SDS011;9677;50.656;13.064;2023-05-10T02:55:51;10.20;;;9.30;;
19089;SDS011;9677;50.656;13.064;2023-05-10T02:58:25;10.17;;;9.27;;
19089;SDS011;9677;50.656;13.064;2023-05-10T03:00:53;10.23;;;9.30;;
19089;SDS011;9677;50.656;13.064;2023-05-10T03:03:22;10.17;;;9.27;;
19089;SDS011;9677;50.656;13.064;2023-05-10T03:05:51;10.37;;;9.47;;
19089;SDS011;9677;50.656;13.064;2023-05-10T03:08:22;10.30;;;9.30;;
19089;SDS011;9677;50.656;13.064;2023-05-10T03:10:54;10.13;;;9.23;;
19089;SDS011;9677;50.656;13.064;2023-05-10T03:13:41;10.53;;;9.53;;
19089;SDS011;9677;50.656;13.064;2023-05-10T03:16:19;10.57;;;9.57;;
19089;SDS011;9677;50.656;13.064;2023-05-10T03:18:56;10.30;;;9.40;;
19089;SDS011;9677;50.656;13.064;2023-05-10T03:21:34;10.40;;;9.40;;
19089;SDS011;9677;50.656;13.064;2023-05-10T03:24:07;10.83;;;9.67;;
19089;SDS011;9677;50.656;13.064;2023-05-10T03:26:38;10.23;;;9.33;;
19089;SDS011;9677;50.656;13.064;2023-05-10T03:29:12;10.57;;;9.67;;
19089;SDS011;9677;50.656;13.064;2023-05-10T03:31:41;10.07;;;9.17;;
19089;SDS011;9677;50.656;13.064;2023-05-10T03:34:11;10.57;;;9.60;;
19089;SDS011;9677;50.656;13.064;2023-05-10T03:36:39;11.00;;;10.00;;
19089;SDS011;9677;50.656;13.064;2023-05-10T03:39:07;13.20;;;9.77;;
19089;SDS011;9677;50.656;13.064;2023-05-10T03:41:36;10.80;;;9.70;;
19089;SDS011;9677;50.656;13.064;2023-05-10T03:44:04;10.70;;;9.70;;
19089;SDS011;9677;50.656;13.064;2023-05-10T03:46:32;10.90;;;9.90;;
19089;SDS011;9677;50.656;13.064;2023-05-10T03:49:02;10.50;;;9.50;;
19089;SDS011;9677;50.656;13.064;2023-05-10T03:51:31;10.97;;;9.97;;
19089;SDS011;9677;50.656;13.064;2023-05-10T03:53:59;10.90;;;9.90;;
19089;SDS011;9677;50.656;13.064;2023-05-10T03:56:27;10.60;;;9.60;;
19089;SDS011;9677;50.656;13.064;2023-05-10T03:58:56;10.40;;;9.40;;
19089;SDS011;9677;50.656;13.064;2023-05-10T04:01:24;10.70;;;9.60;;
19089;SDS011;9677;50.656;13.064;2023-05-10T04:03:52;10.77;;;9.70;;
19089;SDS011;9677;50.656;13.064;2023-05-10T04:06:20;15.13;;;10.00;;
19089;SDS011;9677;50.656;13.064;2023-05-10T04:08:51;11.03;;;9.93;;
19089;SDS011;9677;50.656;13.064;2023-05-10T04:11:19;11.03;;;9.50;;
19089;SDS011;9677;50.656;13.064;2023-05-10T04:13:48;10.73;;;9.73;;
19089;SDS011;9677;50.656;13.064;2023-05-10T04:16:16;10.83;;;9.83;;
19089;SDS011;9677;50.656;13.064;2023-05-10T04:18:44;10.90;;;9.90;;
19089;SDS011;9677;50.656;13.064;2023-05-10T04:21:12;11.60;;;10.40;;
19089;SDS011;9677;50.656;13.064;2023-05-10T04:23:41;10.90;;;9.90;;
19089;SDS011;9677;50.656;13.064;2023-05-10T04:26:10;10.73;;;9.70;;
19089;SDS011;9677;50.656;13.064;2023-05-10T04:28:38;10.63;;;9.63;;
19089;SDS011;9677;50.656;13.064;2023-05-10T04:31:07;10.50;;;9.50;;
19089;SDS011;9677;50.656;13.064;2023-05-10T04:33:37;10.43;;;9.50;;
19089;SDS011;9677;50.656;13.064;2023-05-10T04:36:05;10.10;;;9.20;;
19089;SDS011;9677;50.656;13.064;2023-05-10T04:38:33;10.33;;;9.43;;
19089;SDS011;9677;50.656;13.064;2023-05-10T04:41:05;10.20;;;9.30;;
19089;SDS011;9677;50.656;13.064;2023-05-10T04:43:35;10.77;;;9.77;;
19089;SDS011;9677;50.656;13.064;2023-05-10T04:46:04;10.13;;;9.23;;
19089;SDS011;9677;50.656;13.064;2023-05-10T04:48:33;10.60;;;9.60;;
19089;SDS011;9677;50.656;13.064;2023-05-10T04:51:01;10.67;;;9.70;;
19089;SDS011;9677;50.656;13.064;2023-05-10T04:53:30;10.83;;;9.83;;
19089;SDS011;9677;50.656;13.064;2023-05-10T04:55:58;10.50;;;9.50;;
19089;SDS011;9677;50.656;13.064;2023-05-10T04:58:26;10.20;;;9.30;;
19089;SDS011;9677;50.656;13.064;2023-05-10T05:00:55;10.57;;;9.47;;
19089;SDS011;9677;50.656;13.064;2023-05-10T05:03:23;11.77;;;9.83;;
19089;SDS011;9677;50.656;13.064;2023-05-10T05:05:51;10.50;;;9.50;;
19089;SDS011;9677;50.656;13.064;2023-05-10T05:08:19;10.00;;;9.10;;
19089;SDS011;9677;50.656;13.064;2023-05-10T05:10:47;10.50;;;9.50;;
19089;SDS011;9677;50.656;13.064;2023-05-10T05:13:16;10.53;;;9.53;;
19089;SDS011;9677;50.656;13.064;2023-05-10T05:15:44;10.37;;;9.43;;
19089;SDS011;9677;50.656;13.064;2023-05-10T05:18:14;10.07;;;9.17;;
19089;SDS011;9677;50.656;13.064;2023-05-10T05:20:41;9.90;;;9.00;;
19089;SDS011;9677;50.656;13.064;2023-05-10T05:23:09;10.60;;;9.60;;
19089;SDS011;9677;50.656;13.064;2023-05-10T05:25:37;10.07;;;9.17;;
19089;SDS011;9677;50.656;13.064;2023-05-10T05:28:05;10.30;;;9.30;;
19089;SDS011;9677;50.656;13.064;2023-05-10T05:30:33;10.50;;;9.50;;
19089;SDS011;9677;50.656;13.064;2023-05-10T05:33:01;10.60;;;9.60;;
19089;SDS011;9677;50.656;13.064;2023-05-10T05:35:31;10.53;;;9.53;;
19089;SDS011;9677;50.656;13.064;2023-05-10T05:37:59;10.20;;;9.30;;
19089;SDS011;9677;50.656;13.064;2023-05-10T05:40:27;10.40;;;9.40;;
19089;SDS011;9677;50.656;13.064;2023-05-10T05:42:55;10.40;;;9.43;;
19089;SDS011;9677;50.656;13.064;2023-05-10T05:45:23;9.97;;;9.07;;
19089;SDS011;9677;50.656;13.064;2023-05-10T05:47:51;10.60;;;9.60;;
19089;SDS011;9677;50.656;13.064;2023-05-10T05:50:19;10.80;;;9.10;;
19089;SDS011;9677;50.656;13.064;2023-05-10T05:52:48;10.00;;;9.10;;
19089;SDS011;9677;50.656;13.064;2023-05-10T05:55:17;9.97;;;9.07;;
19089;SDS011;9677;50.656;13.064;2023-05-10T05:57:45;9.77;;;8.87;;
19089;SDS011;9677;50.656;13.064;2023-05-10T06:00:13;10.10;;;9.10;;
19089;SDS011;9677;50.656;13.064;2023-05-10T06:02:44;10.20;;;9.30;;
19089;SDS011;9677;50.656;13.064;2023-05-10T06:05:12;10.80;;;9.07;;
19089;SDS011;9677;50.656;13.064;2023-05-10T06:07:40;10.50;;;9.50;;
19089;SDS011;9677;50.656;13.064;2023-05-10T06:10:10;10.50;;;9.50;;
19089;SDS011;9677;50.656;13.064;2023-05-10T06:12:38;10.10;;;9.20;;
19089;SDS011;9677;50.656;13.064;2023-05-10T06:15:07;9.90;;;9.00;;
19089;SDS011;9677;50.656;13.064;2023-05-10T06:17:36;10.20;;;9.20;;
19089;SDS011;9677;50.656;13.064;2023-05-10T06:20:05;10.20;;;9.20;;
19089;SDS011;9677;50.656;13.064;2023-05-10T06:22:35;10.37;;;9.37;;
19089;SDS011;9677;50.656;13.064;2023-05-10T06:25:03;10.40;;;9.40;;
19089;SDS011;9677;50.656;13.064;2023-05-10T06:27:33;9.80;;;8.90;;
19089;SDS011;9677;50.656;13.064;2023-05-10T06:30:02;10.20;;;9.10;;
19089;SDS011;9677;50.656;13.064;2023-05-10T06:32:38;10.10;;;9.10;;
19089;SDS011;9677;50.656;13.064;2023-05-10T06:35:07;10.33;;;9.33;;
19089;SDS011;9677;50.656;13.064;2023-05-10T06:37:36;10.00;;;9.00;;
19089;SDS011;9677;50.656;13.064;2023-05-10T06:40:04;9.87;;;8.97;;
19089;SDS011;9677;50.656;13.064;2023-05-10T06:42:37;9.90;;;9.00;;
19089;SDS011;9677;50.656;13.064;2023-05-10T06:45:05;10.00;;;9.10;;
19089;SDS011;9677;50.656;13.064;2023-05-10T06:47:35;9.73;;;8.87;;
19089;SDS011;9677;50.656;13.064;2023-05-10T06:50:05;9.97;;;9.07;;
19089;SDS011;9677;50.656;13.064;2023-05-10T06:52:34;10.13;;;9.13;;
19089;SDS011;9677;50.656;13.064;2023-05-10T06:55:02;9.70;;;8.80;;
19089;SDS011;9677;50.656;13.064;2023-05-10T06:57:31;9.90;;;8.90;;
19089;SDS011;9677;50.656;13.064;2023-05-10T07:00:01;9.90;;;9.00;;
19089;SDS011;9677;50.656;13.064;2023-05-10T07:02:31;9.80;;;8.90;;
19089;SDS011;9677;50.656;13.064;2023-05-10T07:04:59;10.47;;;9.47;;
19089;SDS011;9677;50.656;13.064;2023-05-10T07:07:29;9.60;;;8.80;;
19089;SDS011;9677;50.656;13.064;2023-05-10T07:09:57;10.10;;;9.20;;
19089;SDS011;9677;50.656;13.064;2023-05-10T07:12:25;10.37;;;9.27;;
19089;SDS011;9677;50.656;13.064;2023-05-10T07:14:54;9.83;;;8.93;;
19089;SDS011;9677;50.656;13.064;2023-05-10T07:17:24;10.10;;;9.20;;
19089;SDS011;9677;50.656;13.064;2023-05-10T07:19:52;9.90;;;8.90;;
19089;SDS011;9677;50.656;13.064;2023-05-10T07:22:20;10.00;;;9.00;;
19089;SDS011;9677;50.656;13.064;2023-05-10T07:24:48;10.20;;;9.20;;
19089;SDS011;9677;50.656;13.064;2023-05-10T07:27:16;9.63;;;8.77;;
19089;SDS011;9677;50.656;13.064;2023-05-10T07:29:44;10.10;;;9.13;;
19089;SDS011;9677;50.656;13.064;2023-05-10T07:32:12;9.80;;;8.90;;
19089;SDS011;9677;50.656;13.064;2023-05-10T07:34:41;9.83;;;8.93;;
19089;SDS011;9677;50.656;13.064;2023-05-10T07:37:09;9.60;;;8.70;;
19089;SDS011;9677;50.656;13.064;2023-05-10T07:39:37;10.10;;;9.10;;
19089;SDS011;9677;50.656;13.064;2023-05-10T07:42:05;10.07;;;9.07;;
19089;SDS011;9677;50.656;13.064;2023-05-10T07:44:34;9.60;;;8.70;;
19089;SDS011;9677;50.656;13.064;2023-05-10T07:47:02;9.70;;;8.80;;
19089;SDS011;9677;50.656;13.064;2023-05-10T07:49:30;9.80;;;8.90;;
19089;SDS011;9677;50.656;13.064;2023-05-10T07:52:00;9.60;;;8.70;;
19089;SDS011;9677;50.656;13.064;2023-05-10T07:54:27;9.63;;;8.73;;
19089;SDS011;9677;50.656;13.064;2023-05-10T07:56:56;9.50;;;8.60;;
19089;SDS011;9677;50.656;13.064;2023-05-10T07:59:24;9.50;;;8.60;;
19089;SDS011;9677;50.656;13.064;2023-05-10T08:01:52;9.70;;;8.80;;
19089;SDS011;9677;50.656;13.064;2023-05-10T08:04:20;9.90;;;8.90;;
19089;SDS011;9677;50.656;13.064;2023-05-10T08:06:48;9.60;;;8.70;;
19089;SDS011;9677;50.656;13.064;2023-05-10T08:09:17;9.87;;;8.90;;
19089;SDS011;9677;50.656;13.064;2023-05-10T08:11:50;9.70;;;8.80;;
19089;SDS011;9677;50.656;13.064;2023-05-10T08:14:18;9.70;;;8.80;;
19089;SDS011;9677;50.656;13.064;2023-05-10T08:16:46;9.70;;;8.80;;
19089;SDS011;9677;50.656;13.064;2023-05-10T08:19:14;10.10;;;9.10;;
19089;SDS011;9677;50.656;13.064;2023-05-10T08:21:45;9.47;;;8.67;;
19089;SDS011;9677;50.656;13.064;2023-05-10T08:24:13;9.50;;;8.60;;
19089;SDS011;9677;50.656;13.064;2023-05-10T08:26:43;9.57;;;8.67;;
19089;SDS011;9677;50.656;13.064;2023-05-10T08:29:11;9.50;;;8.60;;
19089;SDS011;9677;50.656;13.064;2023-05-10T08:31:39;9.60;;;8.67;;
19089;SDS011;9677;50.656;13.064;2023-05-10T08:34:07;9.30;;;8.50;;
19089;SDS011;9677;50.656;13.064;2023-05-10T08:36:35;9.60;;;8.70;;
19089;SDS011;9677;50.656;13.064;2023-05-10T08:39:03;9.60;;;8.70;;
19089;SDS011;9677;50.656;13.064;2023-05-10T08:41:43;9.50;;;8.70;;
19089;SDS011;9677;50.656;13.064;2023-05-10T08:44:12;10.40;;;9.30;;
19089;SDS011;9677;50.656;13.064;2023-05-10T08:46:41;9.90;;;8.60;;
19089;SDS011;9677;50.656;13.064;2023-05-10T08:49:15;9.73;;;8.83;;
19089;SDS011;9677;50.656;13.064;2023-05-10T08:51:47;9.30;;;8.50;;
19089;SDS011;9677;50.656;13.064;2023-05-10T08:54:19;9.80;;;8.90;;
19089;SDS011;9677;50.656;13.064;2023-05-10T08:56:49;9.37;;;8.57;;
19089;SDS011;9677;50.656;13.064;2023-05-10T08:59:17;9.53;;;8.63;;
19089;SDS011;9677;50.656;13.064;2023-05-10T09:01:45;9.70;;;8.80;;
19089;SDS011;9677;50.656;13.064;2023-05-10T09:04:15;13.40;;;8.80;;
19089;SDS011;9677;50.656;13.064;2023-05-10T09:06:44;9.67;;;8.77;;
19089;SDS011;9677;50.656;13.064;2023-05-10T09:09:12;9.73;;;8.73;;
19089;SDS011;9677;50.656;13.064;2023-05-10T09:11:40;9.70;;;8.80;;
19089;SDS011;9677;50.656;13.064;2023-05-10T09:14:09;9.87;;;8.87;;
19089;SDS011;9677;50.656;13.064;2023-05-10T09:16:39;9.60;;;8.70;;
19089;SDS011;9677;50.656;13.064;2023-05-10T09:19:08;9.77;;;8.77;;
19089;SDS011;9677;50.656;13.064;2023-05-10T09:21:36;9.60;;;8.70;;
19089;SDS011;9677;50.656;13.064;2023-05-10T09:24:05;9.43;;;8.60;;
19089;SDS011;9677;50.656;13.064;2023-05-10T09:26:35;10.03;;;9.10;;
19089;SDS011;9677;50.656;13.064;2023-05-10T09:29:14;9.50;;;8.60;;
19089;SDS011;9677;50.656;13.064;2023-05-10T09:31:44;9.67;;;8.77;;
19089;SDS011;9677;50.656;13.064;2023-05-10T09:34:17;10.47;;;9.37;;
19089;SDS011;9677;50.656;13.064;2023-05-10T09:36:51;10.07;;;9.10;;
19089;SDS011;9677;50.656;13.064;2023-05-10T09:39:29;9.73;;;8.83;;
19089;SDS011;9677;50.656;13.064;2023-05-10T09:41:59;9.60;;;8.70;;
19089;SDS011;9677;50.656;13.064;2023-05-10T09:44:31;10.17;;;9.17;;
19089;SDS011;9677;50.656;13.064;2023-05-10T09:47:00;9.53;;;8.63;;
19089;SDS011;9677;50.656;13.064;2023-05-10T09:49:28;10.00;;;9.00;;
19089;SDS011;9677;50.656;13.064;2023-05-10T09:52:00;9.70;;;8.80;;
19089;SDS011;9677;50.656;13.064;2023-05-10T09:54:29;9.83;;;8.90;;
19089;SDS011;9677;50.656;13.064;2023-05-10T09:56:58;9.70;;;8.80;;
19089;SDS011;9677;50.656;13.064;2023-05-10T09:59:27;9.83;;;8.93;;
19089;SDS011;9677;50.656;13.064;2023-05-10T10:01:57;9.93;;;9.03;;
19089;SDS011;9677;50.656;13.064;2023-05-10T10:04:27;9.63;;;8.60;;
19089;SDS011;9677;50.656;13.064;2023-05-10T10:06:59;9.70;;;8.80;;
19089;SDS011;9677;50.656;13.064;2023-05-10T10:09:32;9.27;;;8.47;;
19089;SDS011;9677;50.656;13.064;2023-05-10T10:12:01;9.60;;;8.70;;
19089;SDS011;9677;50.656;13.064;2023-05-10T10:14:30;9.93;;;8.93;;
19089;SDS011;9677;50.656;13.064;2023-05-10T10:17:00;9.43;;;8.63;;
19089;SDS011;9677;50.656;13.064;2023-05-10T10:19:34;9.80;;;8.90;;
19089;SDS011;9677;50.656;13.064;2023-05-10T10:22:03;9.87;;;8.97;;
19089;SDS011;9677;50.656;13.064;2023-05-10T10:24:32;11.17;;;8.70;;
19089;SDS011;9677;50.656;13.064;2023-05-10T10:27:02;9.70;;;8.80;;
19089;SDS011;9677;50.656;13.064;2023-05-10T10:29:44;10.00;;;9.00;;
19089;SDS011;9677;50.656;13.064;2023-05-10T10:32:26;10.20;;;9.20;;
19089;SDS011;9677;50.656;13.064;2023-05-10T10:35:03;9.43;;;8.53;;
19089;SDS011;9677;50.656;13.064;2023-05-10T10:37:42;9.73;;;8.83;;
19089;SDS011;9677;50.656;13.064;2023-05-10T10:40:25;9.60;;;8.70;;
19089;SDS011;9677;50.656;13.064;2023-05-10T10:42:56;9.50;;;8.67;;
19089;SDS011;9677;50.656;13.064;2023-05-10T10:45:25;9.50;;;8.60;;
19089;SDS011;9677;50.656;13.064;2023-05-10T10:48:06;9.10;;;8.30;;
19089;SDS011;9677;50.656;13.064;2023-05-10T10:50:47;9.63;;;8.73;;
19089;SDS011;9677;50.656;13.064;2023-05-10T10:53:25;10.43;;;8.80;;
19089;SDS011;9677;50.656;13.064;2023-05-10T10:56:02;9.83;;;8.87;;
19089;SDS011;9677;50.656;13.064;2023-05-10T10:58:35;9.60;;;8.70;;
19089;SDS011;9677;50.656;13.064;2023-05-10T11:01:12;9.70;;;8.80;;
19089;SDS011;9677;50.656;13.064;2023-05-10T11:06:47;10.00;;;8.87;;
19089;SDS011;9677;50.656;13.064;2023-05-10T11:09:15;9.83;;;8.93;;
19089;SDS011;9677;50.656;13.064;2023-05-10T11:11:50;9.87;;;8.97;;
19089;SDS011;9677;50.656;13.064;2023-05-10T11:14:21;9.53;;;8.60;;
19089;SDS011;9677;50.656;13.064;2023-05-10T11:16:50;9.80;;;8.90;;
19089;SDS011;9677;50.656;13.064;2023-05-10T11:19:20;9.70;;;8.80;;
19089;SDS011;9677;50.656;13.064;2023-05-10T11:21:48;9.90;;;9.00;;
19089;SDS011;9677;50.656;13.064;2023-05-10T11:24:18;10.10;;;9.10;;
19089;SDS011;9677;50.656;13.064;2023-05-10T11:26:49;9.77;;;8.87;;
19089;SDS011;9677;50.656;13.064;2023-05-10T11:29:18;9.90;;;9.00;;
19089;SDS011;9677;50.656;13.064;2023-05-10T11:31:47;9.87;;;8.90;;
19089;SDS011;9677;50.656;13.064;2023-05-10T11:34:23;9.70;;;8.80;;
19089;SDS011;9677;50.656;13.064;2023-05-10T11:36:52;10.03;;;9.03;;
19089;SDS011;9677;50.656;13.064;2023-05-10T11:39:25;9.70;;;8.80;;
19089;SDS011;9677;50.656;13.064;2023-05-10T11:41:54;10.00;;;9.10;;
19089;SDS011;9677;50.656;13.064;2023-05-10T11:44:23;9.80;;;8.90;;
19089;SDS011;9677;50.656;13.064;2023-05-10T11:46:57;9.90;;;9.00;;
19089;SDS011;9677;50.656;13.064;2023-05-10T11:49:27;10.53;;;9.07;;
19089;SDS011;9677;50.656;13.064;2023-05-10T11:52:03;13.90;;;9.10;;
19089;SDS011;9677;50.656;13.064;2023-05-10T11:54:32;9.83;;;8.90;;
19089;SDS011;9677;50.656;13.064;2023-05-10T11:57:01;9.70;;;8.80;;
19089;SDS011;9677;50.656;13.064;2023-05-10T11:59:29;9.90;;;9.00;;
19089;SDS011;9677;50.656;13.064;2023-05-10T12:01:57;10.20;;;9.20;;
19089;SDS011;9677;50.656;13.064;2023-05-10T12:04:26;9.70;;;8.80;;
19089;SDS011;9677;50.656;13.064;2023-05-10T12:06:56;10.10;;;9.10;;
19089;SDS011;9677;50.656;13.064;2023-05-10T12:09:24;9.80;;;8.90;;
19089;SDS011;9677;50.656;13.064;2023-05-10T12:12:09;10.30;;;9.30;;
19089;SDS011;9677;50.656;13.064;2023-05-10T12:14:37;10.10;;;9.10;;
19089;SDS011;9677;50.656;13.064;2023-05-10T12:17:05;10.20;;;9.10;;
19089;SDS011;9677;50.656;13.064;2023-05-10T12:19:38;9.87;;;8.93;;
19089;SDS011;9677;50.656;13.064;2023-05-10T12:22:07;9.80;;;8.90;;
19089;SDS011;9677;50.656;13.064;2023-05-10T12:24:35;10.10;;;9.10;;
19089;SDS011;9677;50.656;13.064;2023-05-10T12:27:04;9.70;;;8.80;;
19089;SDS011;9677;50.656;13.064;2023-05-10T12:29:34;9.80;;;8.90;;
19089;SDS011;9677;50.656;13.064;2023-05-10T12:32:02;9.70;;;8.80;;
19089;SDS011;9677;50.656;13.064;2023-05-10T12:34:31;9.50;;;8.70;;
19089;SDS011;9677;50.656;13.064;2023-05-10T12:37:02;10.40;;;9.40;;
19089;SDS011;9677;50.656;13.064;2023-05-10T12:39:38;10.13;;;9.13;;
19089;SDS011;9677;50.656;13.064;2023-05-10T12:42:07;10.07;;;8.93;;
19089;SDS011;9677;50.656;13.064;2023-05-10T12:44:35;10.43;;;9.43;;
19089;SDS011;9677;50.656;13.064;2023-05-10T12:47:03;9.83;;;8.93;;
19089;SDS011;9677;50.656;13.064;2023-05-10T12:49:32;10.00;;;9.10;;
19089;SDS011;9677;50.656;13.064;2023-05-10T12:52:00;10.13;;;9.13;;
19089;SDS011;9677;50.656;13.064;2023-05-10T12:54:29;10.20;;;9.20;;
19089;SDS011;9677;50.656;13.064;2023-05-10T12:56:57;9.93;;;9.00;;
19089;SDS011;9677;50.656;13.064;2023-05-10T12:59:25;9.80;;;8.90;;
19089;SDS011;9677;50.656;13.064;2023-05-10T13:01:53;9.73;;;8.83;;
19089;SDS011;9677;50.656;13.064;2023-05-10T13:04:21;9.70;;;8.80;;
19089;SDS011;9677;50.656;13.064;2023-05-10T13:06:49;10.07;;;9.07;;
19089;SDS011;9677;50.656;13.064;2023-05-10T13:09:17;10.13;;;9.23;;
19089;SDS011;9677;50.656;13.064;2023-05-10T13:11:48;9.97;;;9.07;;
19089;SDS011;9677;50.656;13.064;2023-05-10T13:14:16;9.90;;;9.00;;
19089;SDS011;9677;50.656;13.064;2023-05-10T13:16:46;9.80;;;8.90;;
19089;SDS011;9677;50.656;13.064;2023-05-10T13:19:15;10.00;;;9.00;;
19089;SDS011;9677;50.656;13.064;2023-05-10T13:21:44;10.00;;;9.10;;
19089;SDS011;9677;50.656;13.064;2023-05-10T13:24:12;9.83;;;8.93;;
19089;SDS011;9677;50.656;13.064;2023-05-10T13:26:40;11.07;;;9.30;;
19089;SDS011;9677;50.656;13.064;2023-05-10T13:29:09;9.97;;;9.00;;
19089;SDS011;9677;50.656;13.064;2023-05-10T13:31:37;10.00;;;9.00;;
19089;SDS011;9677;50.656;13.064;2023-05-10T13:34:05;9.93;;;9.03;;
19089;SDS011;9677;50.656;13.064;2023-05-10T13:36:33;9.90;;;8.90;;
19089;SDS011;9677;50.656;13.064;2023-05-10T13:39:01;10.20;;;9.30;;
19089;SDS011;9677;50.656;13.064;2023-05-10T13:41:31;9.80;;;8.90;;
19089;SDS011;9677;50.656;13.064;2023-05-10T13:43:59;9.90;;;9.00;;
19089;SDS011;9677;50.656;13.064;2023-05-10T13:46:28;10.03;;;9.13;;
19089;SDS011;9677;50.656;13.064;2023-05-10T13:48:56;11.40;;;8.90;;
19089;SDS011;9677;50.656;13.064;2023-05-10T13:51:24;10.00;;;9.10;;
19089;SDS011;9677;50.656;13.064;2023-05-10T13:53:52;10.17;;;9.17;;
19089;SDS011;9677;50.656;13.064;2023-05-10T13:56:20;9.90;;;9.00;;
19089;SDS011;9677;50.656;13.064;2023-05-10T13:58:48;9.90;;;9.00;;
19089;SDS011;9677;50.656;13.064;2023-05-10T14:01:17;10.33;;;9.33;;
19089;SDS011;9677;50.656;13.064;2023-05-10T14:03:46;9.93;;;8.93;;
19089;SDS011;9677;50.656;13.064;2023-05-10T14:06:15;10.73;;;9.73;;
19089;SDS011;9677;50.656;13.064;2023-05-10T14:08:43;10.20;;;9.20;;
19089;SDS011;9677;50.656;13.064;2023-05-10T14:11:11;10.00;;;9.10;;
19089;SDS011;9677;50.656;13.064;2023-05-10T14:13:39;10.20;;;9.20;;
19089;SDS011;9677;50.656;13.064;2023-05-10T14:16:08;10.17;;;9.17;;
19089;SDS011;9677;50.656;13.064;2023-05-10T14:18:36;9.97;;;9.07;;
19089;SDS011;9677;50.656;13.064;2023-05-10T14:21:05;10.23;;;9.23;;
19089;SDS011;9677;50.656;13.064;2023-05-10T14:23:33;10.00;;;9.10;;
19089;SDS011;9677;50.656;13.064;2023-05-10T14:26:01;10.03;;;9.13;;
19089;SDS011;9677;50.656;13.064;2023-05-10T14:28:30;9.83;;;8.93;;
19089;SDS011;9677;50.656;13.064;2023-05-10T14:30:58;9.90;;;9.00;;
19089;SDS011;9677;50.656;13.064;2023-05-10T14:33:27;10.00;;;9.00;;
19089;SDS011;9677;50.656;13.064;2023-05-10T14:35:55;9.90;;;9.00;;
19089;SDS011;9677;50.656;13.064;2023-05-10T14:38:25;10.27;;;9.27;;
19089;SDS011;9677;50.656;13.064;2023-05-10T14:40:53;9.93;;;9.03;;
19089;SDS011;9677;50.656;13.064;2023-05-10T14:43:21;9.93;;;8.93;;
19089;SDS011;9677;50.656;13.064;2023-05-10T14:45:49;10.20;;;9.20;;
19089;SDS011;9677;50.656;13.064;2023-05-10T14:48:17;19.20;;;11.53;;
19089;SDS011;9677;50.656;13.064;2023-05-10T14:50:45;12.37;;;10.70;;
19089;SDS011;9677;50.656;13.064;2023-05-10T14:53:13;24.07;;;13.80;;
19089;SDS011;9677;50.656;13.064;2023-05-10T14:55:42;22.90;;;14.97;;
19089;SDS011;9677;50.656;13.064;2023-05-10T14:58:10;16.53;;;12.77;;
19089;SDS011;9677;50.656;13.064;2023-05-10T15:00:38;13.90;;;10.93;;